Time;durP1;ratioP1;P1;durP2;ratioP2;P2;SDS_P1;SDS_P2;PMS_P1;PMS_P2;Temp;Humidity;BMP_temperature;BMP_pressure;BME280_temperature;BME280_humidity;BME280_pressure;Samples;Min_cycle;Max_cycle;Signal;HPM_P1;HPM_P2
2022/03/21 00:01:02;;;;;;;11.10;7.00;;;6.50;68.00;;;;;;4994321;28;20191;-83
2022/03/21 00:03:29;;;;;;;10.73;7.30;;;6.40;67.90;;;;;;4994727;28;20497;-83
2022/03/21 00:05:56;;;;;;;12.63;7.00;;;6.40;67.60;;;;;;5009486;28;20638;-83
2022/03/21 00:08:22;;;;;;;11.70;7.03;;;6.40;68.60;;;;;;5009778;28;20187;-83
2022/03/21 00:10:49;;;;;;;9.43;6.67;;;6.30;68.50;;;;;;5009670;28;20191;-83
2022/03/21 00:13:15;;;;;;;18.23;7.50;;;6.30;69.40;;;;;;5009508;28;20218;-84
2022/03/21 00:15:42;;;;;;;9.77;7.00;;;6.30;69.80;;;;;;4993740;28;20564;-84
2022/03/21 00:18:10;;;;;;;11.83;7.13;;;6.30;69.20;;;;;;5009654;28;20188;-82
2022/03/21 00:20:36;;;;;;;10.57;7.57;;;6.20;69.50;;;;;;4994328;28;20172;-83
2022/03/21 00:23:02;;;;;;;10.97;7.43;;;6.20;70.10;;;;;;4992949;28;20581;-84
2022/03/21 00:25:28;;;;;;;10.53;7.43;;;6.20;70.30;;;;;;4994404;28;20599;-83
2022/03/21 00:27:54;;;;;;;10.33;7.10;;;6.10;70.80;;;;;;4994360;28;20180;-82
2022/03/21 00:30:20;;;;;;;11.03;7.50;;;6.10;71.70;;;;;;4996632;28;20218;-83
2022/03/21 00:32:46;;;;;;;12.67;7.33;;;6.10;72.30;;;;;;5003709;28;20191;-82
2022/03/21 00:35:16;;;;;;;12.80;7.53;;;6.00;72.50;;;;;;4996450;28;20641;-82
2022/03/21 00:37:43;;;;;;;11.30;7.30;;;6.00;72.90;;;;;;4996416;28;20187;-83
2022/03/21 00:40:10;;;;;;;12.60;7.63;;;5.90;73.60;;;;;;4996546;28;20179;-82
2022/03/21 00:42:37;;;;;;;11.07;7.50;;;5.80;73.60;;;;;;4996588;28;20215;-83
2022/03/21 00:45:05;;;;;;;12.13;7.20;;;5.80;73.60;;;;;;4996298;28;20180;-82
2022/03/21 00:47:32;;;;;;;13.03;8.13;;;5.80;73.80;;;;;;4997530;28;20206;-83
2022/03/21 00:49:58;;;;;;;12.03;7.93;;;5.80;73.90;;;;;;4996257;28;20194;-82
2022/03/21 00:52:24;;;;;;;11.37;7.27;;;5.70;74.10;;;;;;4995858;28;20657;-81
2022/03/21 00:54:50;;;;;;;12.77;7.80;;;5.70;74.00;;;;;;5012480;28;20249;-83
2022/03/21 00:57:15;;;;;;;11.00;7.70;;;5.70;74.10;;;;;;4997542;28;20242;-83
2022/03/21 00:59:41;;;;;;;12.13;7.70;;;5.70;74.50;;;;;;5012272;28;20168;-83
2022/03/21 01:02:08;;;;;;;11.83;7.83;;;5.60;75.40;;;;;;4995868;28;20211;-83
2022/03/21 01:04:36;;;;;;;10.90;7.53;;;5.60;76.10;;;;;;5012360;28;20211;-83
2022/03/21 01:07:02;;;;;;;13.40;8.23;;;5.60;75.00;;;;;;4996865;28;20581;-82
2022/03/21 01:09:28;;;;;;;13.77;7.73;;;5.60;75.30;;;;;;5011833;28;20177;-81
2022/03/21 01:11:54;;;;;;;12.97;7.87;;;5.50;75.90;;;;;;5012318;28;20319;-81
2022/03/21 01:14:20;;;;;;;10.97;7.47;;;5.60;77.00;;;;;;5012125;28;20677;-83
2022/03/21 01:16:46;;;;;;;12.10;7.67;;;5.50;76.10;;;;;;5012170;28;20615;-82
2022/03/21 01:19:12;;;;;;;10.93;7.53;;;5.50;76.40;;;;;;4997051;28;20714;-83
2022/03/21 01:21:38;;;;;;;13.27;7.67;;;5.50;76.80;;;;;;4996452;28;20246;-83
2022/03/21 01:24:04;;;;;;;11.60;7.90;;;5.40;76.80;;;;;;4995702;28;20183;-82
2022/03/21 01:26:29;;;;;;;12.27;7.40;;;5.40;77.00;;;;;;4995668;28;20180;-83
2022/03/21 01:28:57;;;;;;;12.23;8.70;;;5.40;77.50;;;;;;4997034;28;20609;-83
2022/03/21 01:31:23;;;;;;;15.20;8.23;;;5.40;77.10;;;;;;4995586;28;20190;-82
2022/03/21 01:33:49;;;;;;;11.70;8.17;;;5.30;77.60;;;;;;5011808;28;20210;-81
2022/03/21 01:36:15;;;;;;;11.97;7.63;;;5.30;77.60;;;;;;4996454;28;20210;-82
2022/03/21 01:38:40;;;;;;;13.27;8.37;;;5.30;78.40;;;;;;5011625;28;20180;-83
2022/03/21 01:41:06;;;;;;;11.30;8.07;;;5.20;79.30;;;;;;5010788;28;20207;-83
2022/03/21 01:43:32;;;;;;;18.73;8.57;;;5.20;79.40;;;;;;4996544;28;20227;-81
2022/03/21 01:45:57;;;;;;;12.20;8.10;;;5.20;80.20;;;;;;5011611;28;20525;-81
2022/03/21 01:48:23;;;;;;;11.20;8.03;;;5.20;79.80;;;;;;4996342;28;20184;-82
2022/03/21 01:50:49;;;;;;;11.90;8.27;;;5.20;80.60;;;;;;4996014;28;20164;-81
2022/03/21 01:56:00;;;;;;;11.77;7.80;;;5.10;81.60;;;;;;4996883;28;20250;-83
2022/03/21 01:58:25;;;;;;;11.73;8.17;;;5.10;82.50;;;;;;5010855;28;20179;-83
2022/03/21 02:00:52;;;;;;;11.93;8.80;;;5.10;83.20;;;;;;5011120;28;20538;-81
2022/03/21 02:03:22;;;;;;;14.77;8.47;;;5.10;83.50;;;;;;4997967;28;20230;-81
2022/03/21 02:05:48;;;;;;;13.47;8.40;;;5.10;83.80;;;;;;4994618;28;20180;-82
2022/03/21 02:08:15;;;;;;;13.53;9.20;;;5.00;84.60;;;;;;4994608;28;20200;-81
2022/03/21 02:10:44;;;;;;;12.50;8.57;;;5.00;85.80;;;;;;4994855;28;20171;-81
2022/03/21 02:13:10;;;;;;;11.57;8.67;;;5.00;86.40;;;;;;4995846;28;20172;-82
2022/03/21 02:15:36;;;;;;;12.17;8.57;;;4.90;86.70;;;;;;4994525;28;20611;-82
2022/03/21 02:18:03;;;;;;;13.30;9.07;;;4.90;87.20;;;;;;4994431;28;20191;-81
2022/03/21 02:20:34;;;;;;;15.20;9.13;;;4.90;87.50;;;;;;4995771;28;20172;-81
2022/03/21 02:23:30;;;;;;;14.30;8.10;;;4.90;88.50;;;;;;4995660;28;20310;-81
2022/03/21 02:25:57;;;;;;;11.90;8.97;;;4.80;88.50;;;;;;4995608;28;20172;-82
2022/03/21 02:28:26;;;;;;;12.33;8.53;;;4.80;89.00;;;;;;5010185;28;20219;-82
2022/03/21 02:30:55;;;;;;;18.93;8.80;;;4.80;88.90;;;;;;4995500;28;20180;-81
2022/03/21 02:33:21;;;;;;;13.70;9.20;;;4.80;88.60;;;;;;5010577;28;20184;-81
2022/03/21 02:35:49;;;;;;;14.53;9.03;;;4.80;89.30;;;;;;5010568;28;20583;-82
2022/03/21 02:38:17;;;;;;;12.50;9.17;;;4.80;89.70;;;;;;5010982;28;20254;-82
2022/03/21 02:40:43;;;;;;;13.57;9.47;;;4.80;89.30;;;;;;4995647;28;20183;-82
2022/03/21 02:43:09;;;;;;;18.07;9.20;;;4.70;89.70;;;;;;5010820;28;20223;-83
2022/03/21 02:45:35;;;;;;;14.30;8.87;;;4.70;89.10;;;;;;4995541;28;20199;-83
2022/03/21 02:48:01;;;;;;;14.50;9.60;;;4.70;90.10;;;;;;5010719;28;20219;-82
2022/03/21 02:50:49;;;;;;;12.17;8.77;;;4.70;90.40;;;;;;4995642;28;20172;-83
2022/03/21 02:53:16;;;;;;;13.70;9.37;;;4.70;90.40;;;;;;5010315;28;20183;-83
2022/03/21 02:55:42;;;;;;;12.67;9.20;;;4.70;89.40;;;;;;4995535;28;20587;-83
2022/03/21 02:58:09;;;;;;;15.27;9.60;;;4.70;90.30;;;;;;4995457;28;20186;-83
2022/03/21 03:00:34;;;;;;;13.53;8.80;;;4.70;90.30;;;;;;4995380;28;20270;-83
2022/03/21 03:03:00;;;;;;;12.43;8.63;;;4.70;90.50;;;;;;4995263;28;20294;-82
2022/03/21 03:05:26;;;;;;;15.37;9.73;;;4.70;90.80;;;;;;5010446;28;20180;-83
2022/03/21 03:07:51;;;;;;;14.40;9.10;;;4.60;90.80;;;;;;4994555;28;20270;-81
2022/03/21 03:10:17;;;;;;;12.83;8.67;;;4.60;90.70;;;;;;5010473;28;20180;-82
2022/03/21 03:12:43;;;;;;;15.03;9.90;;;4.60;91.00;;;;;;4995298;28;20191;-82
2022/03/21 03:15:09;;;;;;;15.07;9.47;;;4.60;91.30;;;;;;4995341;28;20179;-81
2022/03/21 03:17:35;;;;;;;13.17;8.90;;;4.50;91.70;;;;;;4995076;28;20188;-82
2022/03/21 03:22:37;;;;;;;14.33;9.03;;;4.40;91.90;;;;;;5137140;22;20242;-81
2022/03/21 03:25:04;;;;;;;13.80;9.57;;;4.40;91.80;;;;;;4994428;28;20267;-81
2022/03/21 03:27:31;;;;;;;14.83;8.67;;;4.30;92.20;;;;;;4994884;28;20226;-81
2022/03/21 03:29:57;;;;;;;12.63;9.07;;;4.40;92.40;;;;;;4993758;28;20198;-81
2022/03/21 03:32:24;;;;;;;15.47;9.40;;;4.30;92.80;;;;;;5010080;28;20184;-82
2022/03/21 03:34:50;;;;;;;16.00;8.97;;;4.30;92.90;;;;;;5010777;28;20230;-82
2022/03/21 03:37:16;;;;;;;13.67;9.30;;;4.30;93.00;;;;;;5014036;28;20175;-81
2022/03/21 03:39:43;;;;;;;15.33;9.07;;;4.20;93.40;;;;;;5013320;28;20194;-81
2022/03/21 03:42:08;;;;;;;14.47;9.57;;;4.30;93.10;;;;;;5012330;28;20254;-82
2022/03/21 03:44:34;;;;;;;17.07;9.43;;;4.20;93.70;;;;;;5013445;28;20192;-80
2022/03/21 03:47:00;;;;;;;16.47;9.13;;;4.20;94.10;;;;;;5013055;28;20556;-81
2022/03/21 03:49:26;;;;;;;15.23;9.33;;;4.10;94.40;;;;;;5012690;28;20438;-80
2022/03/21 03:51:52;;;;;;;13.07;8.87;;;4.20;94.60;;;;;;5012242;28;20278;-80
2022/03/21 03:54:18;;;;;;;13.17;9.43;;;4.10;94.50;;;;;;5014019;28;20278;-80
2022/03/21 03:56:44;;;;;;;13.80;9.23;;;4.10;94.30;;;;;;5013016;28;20185;-80
2022/03/21 03:59:10;;;;;;;13.90;9.20;;;4.10;94.60;;;;;;5012890;28;20186;-81
2022/03/21 04:01:37;;;;;;;16.70;9.67;;;4.00;94.90;;;;;;5012733;28;20294;-81
2022/03/21 04:04:04;;;;;;;15.27;9.70;;;4.00;95.10;;;;;;5013307;28;20186;-82
2022/03/21 04:06:32;;;;;;;17.83;10.03;;;3.90;95.40;;;;;;5016640;28;20622;-83
2022/03/21 04:08:59;;;;;;;20.17;9.83;;;3.90;95.50;;;;;;5016615;28;20269;-82
2022/03/21 04:11:25;;;;;;;17.00;10.40;;;3.90;95.30;;;;;;5017908;28;20227;-81
2022/03/21 04:13:53;;;;;;;13.20;9.53;;;3.90;95.70;;;;;;5016968;28;20184;-83
2022/03/21 04:16:18;;;;;;;18.00;9.90;;;3.80;95.60;;;;;;5016845;28;20190;-82
2022/03/21 04:18:44;;;;;;;15.50;10.03;;;3.80;95.60;;;;;;5016001;28;20187;-82
2022/03/21 04:21:10;;;;;;;13.33;9.13;;;3.80;95.80;;;;;;5015811;28;20661;-82
2022/03/21 04:23:36;;;;;;;14.10;9.20;;;3.80;95.50;;;;;;5016626;28;20610;-82
2022/03/21 04:26:01;;;;;;;16.57;9.63;;;3.80;95.70;;;;;;5016406;28;20175;-82
2022/03/21 04:28:27;;;;;;;19.20;9.83;;;3.80;95.70;;;;;;5016394;28;20193;-82
2022/03/21 04:30:53;;;;;;;18.00;9.57;;;3.80;96.10;;;;;;5015337;28;20181;-82
2022/03/21 04:33:19;;;;;;;14.30;9.30;;;3.80;96.00;;;;;;5014985;28;20183;-82
2022/03/21 04:35:45;;;;;;;16.17;9.13;;;3.80;96.10;;;;;;5016527;28;20176;-82
2022/03/21 04:38:13;;;;;;;16.43;9.43;;;3.70;95.90;;;;;;5014752;28;20204;-83
2022/03/21 04:40:44;;;;;;;13.87;9.57;;;3.80;96.10;;;;;;5016358;28;20184;-82
2022/03/21 04:43:10;;;;;;;15.53;9.00;;;3.80;96.40;;;;;;5016321;28;20674;-82
2022/03/21 04:45:37;;;;;;;14.63;9.50;;;3.70;96.50;;;;;;5015014;28;20171;-82
2022/03/21 04:48:04;;;;;;;15.00;9.93;;;3.70;96.40;;;;;;5014824;28;20326;-82
2022/03/21 04:50:31;;;;;;;15.03;9.57;;;3.70;96.10;;;;;;5015196;28;20224;-83
2022/03/21 04:52:58;;;;;;;13.73;9.33;;;3.70;96.30;;;;;;5014327;28;20182;-82
2022/03/21 04:55:23;;;;;;;12.80;8.83;;;3.70;96.50;;;;;;5016339;28;20168;-81
2022/03/21 04:57:49;;;;;;;15.03;9.57;;;3.70;96.40;;;;;;5014868;28;20649;-82
2022/03/21 05:00:15;;;;;;;15.07;9.83;;;3.60;96.30;;;;;;5016051;28;20221;-82
2022/03/21 05:02:41;;;;;;;15.73;9.97;;;3.70;96.70;;;;;;5016073;28;20281;-81
2022/03/21 05:05:08;;;;;;;18.20;11.70;;;3.60;97.20;;;;;;5015946;28;20179;-81
2022/03/21 05:07:42;;;;;;;13.63;9.60;;;3.60;97.00;;;;;;5014323;28;20229;-80
2022/03/21 05:10:09;;;;;;;13.70;9.50;;;3.60;97.10;;;;;;5016125;28;20618;-81
2022/03/21 05:12:36;;;;;;;14.37;10.07;;;3.60;97.10;;;;;;5014462;28;20189;-81
2022/03/21 05:15:03;;;;;;;16.60;10.03;;;3.50;97.00;;;;;;5014468;28;20192;-80
2022/03/21 05:17:29;;;;;;;14.90;9.83;;;3.50;97.40;;;;;;5015885;28;20175;-81
2022/03/21 05:19:56;;;;;;;18.00;9.93;;;3.50;97.50;;;;;;5014490;28;20185;-81
2022/03/21 05:22:22;;;;;;;14.03;9.63;;;3.40;97.80;;;;;;4967127;28;1373994;-82
2022/03/21 05:35:55;;;;;;;15.20;10.13;;;3.30;98.90;;;;;;5016437;28;20192;-82
2022/03/21 05:38:26;;;;;;;16.00;9.43;;;3.30;99.00;;;;;;5016085;28;20168;-80
2022/03/21 05:40:58;;;;;;;14.27;9.77;;;3.30;99.10;;;;;;5019449;28;20182;-81
2022/03/21 05:43:24;;;;;;;13.33;9.10;;;3.30;99.30;;;;;;5035409;28;20196;-80
2022/03/21 05:45:51;;;;;;;16.60;10.00;;;3.40;99.20;;;;;;5036082;28;20167;-81
2022/03/21 05:51:03;;;;;;;14.03;9.83;;;3.40;98.90;;;;;;5036320;28;20191;-82
2022/03/21 05:53:30;;;;;;;16.07;10.17;;;3.40;98.70;;;;;;5020386;28;20248;-82
2022/03/21 05:55:56;;;;;;;16.90;9.60;;;3.50;98.50;;;;;;5014923;28;20187;-83
2022/03/21 05:58:22;;;;;;;13.90;9.60;;;3.50;98.80;;;;;;5014386;28;20636;-82
2022/03/21 06:00:48;;;;;;;13.53;9.27;;;3.50;98.50;;;;;;5014474;28;20277;-82
2022/03/21 06:03:13;;;;;;;13.07;9.30;;;3.50;98.60;;;;;;5014665;28;20296;-82
2022/03/21 06:05:40;;;;;;;16.97;10.07;;;3.50;98.80;;;;;;5014288;28;20194;-83
2022/03/21 06:08:08;;;;;;;17.83;9.30;;;3.50;98.70;;;;;;5015837;28;20225;-83
2022/03/21 06:10:36;;;;;;;12.80;9.43;;;3.50;98.90;;;;;;5014614;28;20185;-80
2022/03/21 06:13:05;;;;;;;14.80;9.60;;;3.60;98.60;;;;;;5014324;28;20217;-80
2022/03/21 06:15:37;;;;;;;15.43;9.93;;;3.60;98.50;;;;;;5015712;28;20628;-81
2022/03/21 06:18:12;;;;;;;14.23;9.43;;;3.60;98.10;;;;;;5014504;28;20178;-80
2022/03/21 06:20:39;;;;;;;18.23;10.53;;;3.70;98.40;;;;;;5014390;28;20175;-81
2022/03/21 06:23:06;;;;;;;15.17;9.40;;;3.70;98.00;;;;;;5014096;28;20219;-82
2022/03/21 06:25:32;;;;;;;15.07;9.63;;;3.80;98.30;;;;;;5014171;28;20213;-82
2022/03/21 06:27:58;;;;;;;18.70;10.10;;;3.80;98.20;;;;;;5015064;28;20167;-80
2022/03/21 06:30:23;;;;;;;16.97;9.63;;;3.80;98.60;;;;;;5014387;28;20186;-80
2022/03/21 06:32:49;;;;;;;14.03;10.13;;;3.80;98.10;;;;;;5014181;28;20175;-81
2022/03/21 06:35:15;;;;;;;18.17;10.47;;;3.90;98.50;;;;;;5015539;28;20261;-80
2022/03/21 06:37:41;;;;;;;15.10;9.97;;;3.90;98.60;;;;;;5015249;28;20594;-82
2022/03/21 06:40:09;;;;;;;14.80;9.50;;;4.00;98.40;;;;;;5014011;28;20193;-81
2022/03/21 06:42:35;;;;;;;15.27;9.53;;;4.00;98.10;;;;;;5013947;28;20222;-81
2022/03/21 06:45:01;;;;;;;17.70;9.83;;;4.10;98.10;;;;;;5013970;28;20182;-82
2022/03/21 06:47:27;;;;;;;15.17;10.43;;;4.10;97.80;;;;;;5013952;28;20357;-82
2022/03/21 06:49:53;;;;;;;15.60;9.90;;;4.20;97.50;;;;;;5013963;28;20179;-83
2022/03/21 06:52:19;;;;;;;14.70;9.73;;;4.20;97.30;;;;;;5013446;28;20193;-81
2022/03/21 06:54:48;;;;;;;14.50;9.93;;;4.30;97.40;;;;;;5015106;28;20201;-82
2022/03/21 06:57:14;;;;;;;14.10;9.40;;;4.40;97.40;;;;;;5014886;28;20159;-82
2022/03/21 06:59:41;;;;;;;15.33;9.73;;;4.50;97.70;;;;;;5013824;28;20175;-82
2022/03/21 07:02:07;;;;;;;17.43;10.17;;;4.60;97.80;;;;;;5014948;28;20276;-82
2022/03/21 07:04:33;;;;;;;14.43;9.33;;;4.70;97.20;;;;;;5015120;28;20163;-83
2022/03/21 07:06:59;;;;;;;20.30;10.27;;;4.80;96.70;;;;;;5013574;28;20199;-83
2022/03/21 07:09:25;;;;;;;18.33;9.97;;;5.00;96.30;;;;;;5013620;28;20182;-81
2022/03/21 07:11:52;;;;;;;16.30;9.77;;;5.10;95.80;;;;;;5013626;28;20179;-82
2022/03/21 07:14:21;;;;;;;15.93;9.97;;;5.20;95.80;;;;;;5013716;28;20202;-83
2022/03/21 07:16:47;;;;;;;13.73;9.53;;;5.20;95.40;;;;;;5013696;28;20286;-83
2022/03/21 07:19:13;;;;;;;18.07;9.47;;;5.30;94.70;;;;;;5013533;28;20179;-82
2022/03/21 07:21:38;;;;;;;17.37;9.43;;;5.40;94.40;;;;;;5012829;28;20258;-83
2022/03/21 07:24:04;;;;;;;16.03;9.77;;;5.40;94.60;;;;;;5013478;28;20280;-80
2022/03/21 07:26:31;;;;;;;15.10;9.70;;;5.50;93.90;;;;;;5013491;28;20171;-81
2022/03/21 07:28:57;;;;;;;16.03;9.97;;;5.60;94.20;;;;;;5013185;28;20183;-81
2022/03/21 07:31:23;;;;;;;15.70;9.60;;;5.70;94.90;;;;;;5013216;28;20179;-83
2022/03/21 07:33:49;;;;;;;17.97;10.47;;;5.80;94.40;;;;;;5014632;28;20213;-80
2022/03/21 07:36:14;;;;;;;14.23;9.50;;;5.80;94.20;;;;;;5013102;28;20646;-82
2022/03/21 07:38:40;;;;;;;15.60;10.20;;;6.00;93.90;;;;;;5013227;28;20177;-82
2022/03/21 07:41:07;;;;;;;17.73;10.97;;;6.00;93.70;;;;;;5017077;28;20214;-83
2022/03/21 07:43:33;;;;;;;15.07;10.07;;;6.10;93.40;;;;;;5017281;28;20210;-80
2022/03/21 07:48:44;;;;;;;16.90;9.90;;;6.20;92.60;;;;;;5038290;28;20258;-79
2022/03/21 07:51:10;;;;;;;14.87;9.97;;;6.30;92.60;;;;;;5036495;28;20181;-80
2022/03/21 07:53:36;;;;;;;16.83;9.27;;;6.40;92.50;;;;;;5037810;28;20214;-83
2022/03/21 07:56:02;;;;;;;16.80;8.77;;;6.50;92.10;;;;;;5036866;28;20205;-83
2022/03/21 07:58:28;;;;;;;14.53;9.57;;;6.60;91.40;;;;;;5036848;28;20700;-83
2022/03/21 08:00:56;;;;;;;18.87;9.70;;;6.60;91.40;;;;;;5036944;28;20629;-82
2022/03/21 08:03:22;;;;;;;14.07;9.67;;;6.60;91.60;;;;;;5037674;28;20234;-82
2022/03/21 08:05:48;;;;;;;13.57;9.40;;;6.70;91.00;;;;;;5028091;28;20286;-83
2022/03/21 08:08:15;;;;;;;12.37;8.97;;;6.70;90.40;;;;;;5016608;28;20271;-83
2022/03/21 08:10:42;;;;;;;14.47;9.20;;;6.80;90.00;;;;;;5018101;28;20178;-83
2022/03/21 08:13:08;;;;;;;16.83;9.97;;;6.90;90.60;;;;;;5018083;28;20221;-84
2022/03/21 08:15:42;;;;;;;13.37;10.03;;;6.90;90.10;;;;;;5018123;28;20266;-82
2022/03/21 08:18:07;;;;;;;15.00;9.90;;;6.90;89.80;;;;;;5016374;28;20497;-82
2022/03/21 08:20:34;;;;;;;15.60;9.97;;;7.10;90.50;;;;;;5016607;28;20214;-83
2022/03/21 08:23:06;;;;;;;14.67;10.20;;;7.20;90.30;;;;;;5017611;28;20294;-82
2022/03/21 08:25:36;;;;;;;14.90;9.80;;;7.20;88.80;;;;;;5017890;28;20302;-83
2022/03/21 08:28:03;;;;;;;13.93;9.47;;;7.30;89.20;;;;;;5016467;28;20594;-82
2022/03/21 08:30:32;;;;;;;13.17;9.20;;;7.30;89.10;;;;;;5016203;28;20183;-82
2022/03/21 08:32:59;;;;;;;13.43;9.80;;;7.40;89.70;;;;;;5017448;28;20179;-82
2022/03/21 08:35:25;;;;;;;15.10;9.43;;;7.50;89.20;;;;;;5017648;28;20179;-82
2022/03/21 08:37:51;;;;;;;13.10;9.20;;;7.60;88.40;;;;;;5016116;28;20202;-83
2022/03/21 08:40:17;;;;;;;13.57;9.60;;;7.70;86.60;;;;;;5017631;28;20175;-82
2022/03/21 08:42:43;;;;;;;15.23;9.70;;;7.80;86.10;;;;;;5017182;28;20218;-83
2022/03/21 08:45:10;;;;;;;13.73;9.30;;;7.90;86.40;;;;;;5016206;28;20179;-82
2022/03/21 08:47:37;;;;;;;15.00;9.80;;;7.90;83.80;;;;;;5017117;28;20230;-83
2022/03/21 08:50:03;;;;;;;14.67;9.50;;;7.90;84.80;;;;;;5015909;28;20557;-82
2022/03/21 08:52:30;;;;;;;14.43;9.50;;;8.00;83.70;;;;;;5017018;28;20186;-82
2022/03/21 08:54:56;;;;;;;15.00;9.40;;;8.00;86.80;;;;;;5017401;28;20694;-82
2022/03/21 08:57:22;;;;;;;14.73;9.47;;;8.10;85.10;;;;;;5017088;28;20207;-81
2022/03/21 08:59:48;;;;;;;15.10;9.63;;;8.10;83.40;;;;;;5017155;28;20254;-83
2022/03/21 09:02:17;;;;;;;12.80;9.13;;;8.20;84.90;;;;;;5016938;28;20285;-81
2022/03/21 09:04:42;;;;;;;16.70;9.60;;;8.30;82.80;;;;;;5017186;28;20182;-82
2022/03/21 09:07:08;;;;;;;15.67;9.40;;;8.40;82.20;;;;;;5016530;28;20278;-83
2022/03/21 09:09:34;;;;;;;16.87;9.60;;;8.50;83.20;;;;;;5017027;28;20624;-82
2022/03/21 09:12:00;;;;;;;15.87;9.83;;;8.50;81.20;;;;;;5015290;28;20176;-82
2022/03/21 09:14:26;;;;;;;16.27;9.87;;;8.50;80.90;;;;;;5016696;28;20614;-81
2022/03/21 09:16:53;;;;;;;12.93;9.73;;;8.50;83.40;;;;;;5016853;28;20179;-83
2022/03/21 09:19:19;;;;;;;17.93;9.67;;;8.60;82.60;;;;;;5015567;28;20175;-83
2022/03/21 09:21:46;;;;;;;13.20;9.57;;;8.70;81.90;;;;;;5015101;28;20677;-82
2022/03/21 09:24:11;;;;;;;12.07;8.93;;;8.80;81.20;;;;;;5016221;28;20607;-83
2022/03/21 09:26:37;;;;;;;15.20;10.23;;;8.80;79.80;;;;;;5016617;28;20190;-82
2022/03/21 09:29:04;;;;;;;15.47;9.97;;;8.90;79.90;;;;;;5016399;28;20155;-82
2022/03/21 09:31:34;;;;;;;14.40;9.33;;;9.00;78.80;;;;;;5016473;28;20175;-83
2022/03/21 09:33:59;;;;;;;13.17;9.60;;;9.00;77.30;;;;;;5015198;28;20171;-83
2022/03/21 09:36:25;;;;;;;14.23;9.63;;;9.10;78.10;;;;;;5015387;28;20179;-82
2022/03/21 09:38:51;;;;;;;13.53;10.00;;;9.10;76.80;;;;;;5016047;28;20199;-82
2022/03/21 09:41:23;;;;;;;14.77;9.80;;;9.20;77.70;;;;;;5016142;28;20258;-82
2022/03/21 09:44:00;;;;;;;13.93;9.80;;;9.30;78.50;;;;;;5014801;28;20641;-82
2022/03/21 09:46:26;;;;;;;14.27;9.23;;;9.40;76.50;;;;;;5015066;28;20179;-82
2022/03/21 09:48:55;;;;;;;16.30;9.80;;;9.50;77.30;;;;;;5014921;28;20179;-82
2022/03/21 09:51:26;;;;;;;16.00;9.50;;;9.60;76.20;;;;;;5016123;28;20183;-82
2022/03/21 09:53:52;;;;;;;14.20;9.80;;;9.60;76.80;;;;;;5015716;28;20258;-82
2022/03/21 09:56:18;;;;;;;12.90;9.57;;;9.60;77.00;;;;;;5014649;28;20309;-82
2022/03/21 09:58:44;;;;;;;14.67;9.23;;;9.70;77.00;;;;;;5014878;28;20179;-83
2022/03/21 10:01:11;;;;;;;13.77;9.83;;;9.80;76.00;;;;;;5015944;28;20240;-82
2022/03/21 10:03:38;;;;;;;13.90;9.67;;;9.90;74.90;;;;;;5013785;28;20215;-84
2022/03/21 10:06:40;;;;;;;15.63;10.07;;;9.90;73.60;;;;;;5016069;28;20221;-83
2022/03/21 10:09:17;;;;;;;13.90;10.07;;;9.90;73.90;;;;;;5004098;28;20558;-84
2022/03/21 10:11:58;;;;;;;11.97;9.53;;;9.90;73.60;;;;;;5015673;28;20174;-82
2022/03/21 10:14:29;;;;;;;12.70;9.30;;;10.00;74.70;;;;;;5014600;28;20502;-82
2022/03/21 10:17:06;;;;;;;13.80;9.70;;;10.10;73.90;;;;;;5014294;28;20210;-82
2022/03/21 10:19:52;;;;;;;13.00;9.83;;;10.10;72.80;;;;;;5014395;28;20171;-82
2022/03/21 10:22:20;;;;;;;14.00;9.60;;;10.30;73.90;;;;;;5013885;28;20666;-82
2022/03/21 10:24:50;;;;;;;12.27;9.43;;;10.30;71.50;;;;;;5015312;28;20581;-83
2022/03/21 10:27:31;;;;;;;13.73;9.37;;;10.30;72.00;;;;;;5014013;28;20258;-82
2022/03/21 10:30:01;;;;;;;15.30;9.60;;;10.40;72.30;;;;;;5015616;28;20168;-82
2022/03/21 10:32:37;;;;;;;15.70;9.87;;;10.50;71.40;;;;;;5014008;28;20179;-82
2022/03/21 10:35:11;;;;;;;13.60;9.93;;;10.60;73.10;;;;;;5014185;28;20638;-82
2022/03/21 10:37:43;;;;;;;16.00;10.13;;;10.70;72.00;;;;;;5013529;28;20172;-82
2022/03/21 10:40:24;;;;;;;12.60;9.77;;;10.70;71.30;;;;;;5014002;28;20665;-82
2022/03/21 10:42:59;;;;;;;15.03;9.53;;;10.80;70.50;;;;;;5015237;28;20719;-83
2022/03/21 10:45:36;;;;;;;19.77;9.77;;;10.80;71.40;;;;;;5015210;28;20158;-81
2022/03/21 10:48:07;;;;;;;15.27;9.50;;;10.90;70.30;;;;;;5024085;28;20552;-82
2022/03/21 10:50:35;;;;;;;14.82;9.95;;;10.90;70.20;;;;;;5033787;28;20512;-81
2022/03/21 10:53:19;;;;;;;14.67;9.30;;;11.00;70.60;;;;;;5034343;28;20179;-81
2022/03/21 10:56:05;;;;;;;16.30;9.55;;;11.10;71.40;;;;;;5018744;28;20309;-81
2022/03/21 10:58:40;;;;;;;18.70;10.07;;;11.20;70.90;;;;;;5014756;28;20163;-81
2022/03/21 11:01:24;;;;;;;12.75;9.27;;;11.30;72.10;;;;;;5013836;28;20182;-82
2022/03/21 11:03:52;;;;;;;14.80;10.13;;;11.50;71.20;;;;;;5013705;28;20195;-82
2022/03/21 11:06:18;;;;;;;16.48;10.32;;;11.60;69.70;;;;;;5014998;28;20262;-82
2022/03/21 11:08:47;;;;;;;16.80;10.03;;;11.70;70.80;;;;;;5013529;28;20568;-82
2022/03/21 11:11:13;;;;;;;12.88;9.73;;;11.70;69.10;;;;;;5014996;28;20152;-81
2022/03/21 11:13:39;;;;;;;15.65;10.02;;;11.60;68.80;;;;;;5014583;28;20182;-81
2022/03/21 11:16:06;;;;;;;16.85;9.15;;;11.70;68.90;;;;;;5013510;28;20283;-81
2022/03/21 11:18:32;;;;;;;12.27;9.30;;;11.70;69.30;;;;;;5013407;28;20175;-83
2022/03/21 11:20:59;;;;;;;13.63;9.85;;;11.60;69.60;;;;;;5013325;28;20229;-81
2022/03/21 11:23:25;;;;;;;14.90;9.52;;;11.70;68.30;;;;;;5013023;28;20203;-82
2022/03/21 11:26:11;;;;;;;14.52;9.98;;;11.70;68.80;;;;;;5014531;28;20178;-81
2022/03/21 11:29:16;;;;;;;13.30;9.60;;;11.90;69.60;;;;;;5013629;28;20178;-81
2022/03/21 11:31:47;;;;;;;13.32;9.27;;;12.00;68.70;;;;;;4983411;28;20189;-82
2022/03/21 11:34:46;;;;;;;14.32;9.98;;;12.10;69.40;;;;;;5013368;28;20606;-81
2022/03/21 11:37:29;;;;;;;13.77;9.60;;;12.20;68.30;;;;;;5013238;28;20258;-82
2022/03/21 11:40:29;;;;;;;14.75;10.15;;;12.20;67.40;;;;;;5013243;28;20202;-82
2022/03/21 11:43:18;;;;;;;13.25;9.60;;;12.10;67.70;;;;;;5014278;28;20203;-80
2022/03/21 11:45:45;;;;;;;15.45;9.60;;;12.30;67.10;;;;;;5005363;28;20187;-81
2022/03/21 11:48:17;;;;;;;13.98;9.35;;;12.40;66.60;;;;;;5013087;28;20207;-82
2022/03/21 11:50:43;;;;;;;14.30;9.35;;;12.40;65.80;;;;;;5014367;28;20163;-81
2022/03/21 11:53:11;;;;;;;14.27;9.93;;;12.40;66.60;;;;;;5012765;28;20183;-82
2022/03/21 11:55:42;;;;;;;15.20;9.73;;;12.50;65.90;;;;;;5012891;28;20517;-81
2022/03/21 11:58:23;;;;;;;12.15;8.95;;;12.60;65.80;;;;;;5013038;28;20261;-82
2022/03/21 12:01:27;;;;;;;12.82;9.68;;;12.50;65.90;;;;;;5013085;28;20179;-82
2022/03/21 12:03:54;;;;;;;12.93;9.20;;;12.60;64.50;;;;;;5014320;28;20194;-82
2022/03/21 12:06:20;;;;;;;15.73;9.93;;;12.70;65.90;;;;;;5014200;28;20175;-82
2022/03/21 12:08:48;;;;;;;15.05;9.48;;;12.70;66.40;;;;;;5012814;28;20198;-82
2022/03/21 12:11:36;;;;;;;13.65;9.85;;;12.80;65.20;;;;;;5014285;28;20377;-83
2022/03/21 12:14:26;;;;;;;15.38;9.40;;;12.90;64.00;;;;;;5014227;28;20186;-82
2022/03/21 12:17:00;;;;;;;18.08;10.27;;;12.80;64.20;;;;;;5014077;28;20171;-81
2022/03/21 12:19:54;;;;;;;16.10;9.40;;;12.90;64.30;;;;;;5014262;28;20175;-82
2022/03/21 12:22:29;;;;;;;17.65;10.38;;;12.90;64.10;;;;;;5013674;28;20712;-81
2022/03/21 12:25:40;;;;;;;13.45;9.23;;;12.90;65.00;;;;;;5012772;28;20206;-81
2022/03/21 12:29:31;;;;;;;13.18;9.85;;;13.00;64.00;;;;;;5017533;28;20175;-83
2022/03/21 12:31:26;;;;;;;14.18;10.20;;;13.10;64.40;;;;;;5017509;28;20182;-82
2022/03/21 12:33:52;;;;;;;13.30;9.68;;;13.20;63.70;;;;;;5017794;28;20167;-82
2022/03/21 12:36:31;;;;;;;13.45;10.02;;;13.30;64.10;;;;;;5017422;28;20171;-83
2022/03/21 12:38:57;;;;;;;14.68;9.77;;;13.50;64.50;;;;;;5015929;28;20268;-82
2022/03/21 12:41:33;;;;;;;16.83;10.25;;;13.50;63.60;;;;;;5016143;28;20562;-82
2022/03/21 12:43:58;;;;;;;20.73;9.82;;;13.50;62.90;;;;;;5016219;28;20531;-83
2022/03/21 12:46:26;;;;;;;12.73;9.30;;;13.50;63.30;;;;;;5017562;28;20172;-83
2022/03/21 12:49:00;;;;;;;15.35;10.60;;;13.50;63.90;;;;;;5017197;28;20179;-83
2022/03/21 12:51:31;;;;;;;12.88;9.93;;;13.50;63.50;;;;;;5017193;28;20206;-82
2022/03/21 12:54:00;;;;;;;13.63;9.88;;;13.70;63.90;;;;;;5016944;28;20182;-82
2022/03/21 12:56:26;;;;;;;15.30;9.73;;;13.70;63.50;;;;;;5017396;28;20194;-83
2022/03/21 12:59:03;;;;;;;16.25;10.20;;;13.70;64.30;;;;;;5015682;28;20558;-82
2022/03/21 13:01:30;;;;;;;15.63;10.48;;;13.80;63.20;;;;;;5015664;28;20502;-82
2022/03/21 13:12:36;;;;;;;16.98;10.90;;;14.00;64.70;;;;;;5017230;28;20259;-83
2022/03/21 13:15:10;;;;;;;13.52;10.43;;;13.90;63.20;;;;;;5015725;28;20265;-82
2022/03/21 13:17:43;;;;;;;18.95;10.43;;;13.90;63.30;;;;;;5015561;28;20197;-84
2022/03/21 13:20:10;;;;;;;14.82;10.23;;;13.90;62.70;;;;;;5015445;28;20190;-83
2022/03/21 13:22:36;;;;;;;15.07;10.50;;;14.00;63.40;;;;;;5014855;28;20289;-82